Time;durP1;ratioP1;P1;durP2;ratioP2;P2;SDS_P1;SDS_P2;PMS_P1;PMS_P2;Temp;Humidity;BMP_temperature;BMP_pressure;BME280_temperature;BME280_humidity;BME280_pressure;Samples;Min_cycle;Max_cycle;Signal;HPM_P1;HPM_P2
2023/09/21 00:00:25;;;;;;;2.57;2.27;;;15.00;98.60;;;;;;2071288;28;21036;-81
2023/09/21 00:01:26;;;;;;;3.00;2.50;;;15.00;98.50;;;;;;2071133;28;20474;-81
2023/09/21 00:02:28;;;;;;;2.47;2.27;;;15.00;98.70;;;;;;2071660;28;20580;-81
2023/09/21 00:03:34;;;;;;;3.67;2.23;;;15.00;98.70;;;;;;2071315;28;20284;-81
2023/09/21 00:04:35;;;;;;;2.33;2.13;;;15.00;98.60;;;;;;2071533;28;20599;-81
2023/09/21 00:05:39;;;;;;;3.50;2.10;;;15.10;98.50;;;;;;2071784;28;20462;-81
2023/09/21 00:06:39;;;;;;;2.50;2.30;;;15.10;98.70;;;;;;2063778;28;20602;-81
2023/09/21 00:07:41;;;;;;;3.77;2.50;;;15.10;98.80;;;;;;2072062;28;20502;-80
2023/09/21 00:08:42;;;;;;;2.50;2.27;;;15.00;99.10;;;;;;2066233;28;20580;-81
2023/09/21 00:09:42;;;;;;;2.73;2.30;;;15.00;99.10;;;;;;2071808;28;20493;-81
2023/09/21 00:10:43;;;;;;;2.93;2.50;;;15.00;99.00;;;;;;2064389;28;20707;-81
2023/09/21 00:11:43;;;;;;;2.43;2.20;;;15.00;99.20;;;;;;2078385;28;20272;-80
2023/09/21 00:12:44;;;;;;;3.07;2.10;;;15.10;99.00;;;;;;2081530;28;20225;-81
2023/09/21 00:13:45;;;;;;;2.58;2.20;;;15.00;99.10;;;;;;2081768;28;20226;-80
2023/09/21 00:14:46;;;;;;;3.33;2.40;;;15.00;99.20;;;;;;2073165;28;20307;-81
2023/09/21 00:15:50;;;;;;;2.50;2.30;;;15.00;99.30;;;;;;2071855;28;20279;-81
2023/09/21 00:16:50;;;;;;;2.93;2.40;;;15.10;99.30;;;;;;2072200;28;20470;-81
2023/09/21 00:17:51;;;;;;;2.50;2.30;;;15.00;99.10;;;;;;2071584;28;20503;-81
2023/09/21 00:18:52;;;;;;;3.17;2.43;;;15.00;99.40;;;;;;2063454;28;20321;-81
2023/09/21 00:19:53;;;;;;;3.53;2.20;;;15.00;99.50;;;;;;2071239;28;20736;-81
2023/09/21 00:20:54;;;;;;;4.00;2.30;;;15.00;99.50;;;;;;2070713;28;20668;-81
2023/09/21 00:21:57;;;;;;;2.73;2.20;;;14.90;99.70;;;;;;2062553;28;20478;-81
2023/09/21 00:22:59;;;;;;;2.30;2.10;;;14.80;99.90;;;;;;2062959;28;20258;-81
2023/09/21 00:24:00;;;;;;;3.07;2.50;;;14.70;99.90;;;;;;2062693;28;20483;-81
2023/09/21 00:25:00;;;;;;;2.57;2.37;;;14.70;99.90;;;;;;2071984;28;20479;-81
2023/09/21 00:26:01;;;;;;;3.07;2.20;;;14.70;99.90;;;;;;2070611;28;20236;-81
2023/09/21 00:27:02;;;;;;;2.80;2.30;;;14.70;99.90;;;;;;2062971;28;20745;-81
2023/09/21 00:28:07;;;;;;;2.83;2.40;;;14.60;99.90;;;;;;2071151;28;20249;-81
2023/09/21 00:29:08;;;;;;;3.40;2.43;;;14.70;99.90;;;;;;2066627;28;20177;-81
2023/09/21 00:30:09;;;;;;;4.17;2.10;;;14.60;99.90;;;;;;2071422;28;20434;-81
2023/09/21 00:31:10;;;;;;;3.13;2.23;;;14.70;99.90;;;;;;2072561;28;20207;-81
2023/09/21 00:32:11;;;;;;;3.03;2.25;;;14.70;99.90;;;;;;2070751;28;20416;-81
2023/09/21 00:33:12;;;;;;;2.97;2.00;;;14.70;99.90;;;;;;2073097;28;20173;-81
2023/09/21 00:34:12;;;;;;;2.30;2.10;;;14.70;99.90;;;;;;2075865;28;20214;-80
2023/09/21 00:35:15;;;;;;;2.33;2.13;;;14.70;99.90;;;;;;2075068;28;20178;-80
2023/09/21 00:36:17;;;;;;;2.60;2.30;;;14.80;99.90;;;;;;2078294;28;20197;-80
2023/09/21 00:37:18;;;;;;;2.40;2.00;;;14.90;99.90;;;;;;2073067;28;20181;-81
2023/09/21 00:38:20;;;;;;;2.90;2.13;;;14.90;99.90;;;;;;2072941;28;20423;-81
2023/09/21 00:39:21;;;;;;;3.20;2.00;;;14.80;99.90;;;;;;2072143;28;20186;-81
2023/09/21 00:40:22;;;;;;;2.57;2.37;;;14.70;99.90;;;;;;2072667;28;23942;-81
2023/09/21 00:41:23;;;;;;;2.97;1.90;;;14.80;99.90;;;;;;2072528;28;20505;-81
2023/09/21 00:42:23;;;;;;;4.33;2.20;;;14.90;99.90;;;;;;2072582;28;21074;-81
2023/09/21 00:43:25;;;;;;;4.20;2.50;;;14.80;99.90;;;;;;2072720;28;20236;-81
2023/09/21 00:44:26;;;;;;;3.03;2.50;;;14.80;99.90;;;;;;2072070;28;20238;-81
2023/09/21 00:45:28;;;;;;;3.40;2.30;;;14.80;99.90;;;;;;2070684;28;20545;-81
2023/09/21 00:46:28;;;;;;;2.70;2.40;;;14.80;99.90;;;;;;2072105;28;20280;-81
2023/09/21 00:47:29;;;;;;;2.97;2.10;;;14.80;99.90;;;;;;2072315;28;20467;-81
2023/09/21 00:48:33;;;;;;;2.80;2.27;;;14.90;99.90;;;;;;2072446;28;20238;-81
2023/09/21 00:49:36;;;;;;;2.30;2.10;;;15.00;99.90;;;;;;2065711;28;20250;-81
2023/09/21 00:50:37;;;;;;;3.30;2.40;;;14.90;99.90;;;;;;2071688;28;20703;-81
2023/09/21 00:51:39;;;;;;;3.73;2.00;;;14.90;99.90;;;;;;2072276;28;20325;-81
2023/09/21 00:52:41;;;;;;;2.20;2.00;;;15.00;99.70;;;;;;2072650;28;20470;-81
2023/09/21 00:53:44;;;;;;;2.53;2.33;;;15.00;99.60;;;;;;2072862;28;20467;-81
2023/09/21 00:54:45;;;;;;;4.07;2.73;;;15.10;99.30;;;;;;2070625;28;20467;-81
2023/09/21 00:55:53;;;;;;;3.45;2.20;;;15.00;99.40;;;;;;2072494;28;20889;-81
2023/09/21 00:56:54;;;;;;;2.77;2.40;;;15.00;99.70;;;;;;2072737;28;20233;-80
2023/09/21 00:58:00;;;;;;;2.73;2.30;;;15.00;99.80;;;;;;2064231;28;20476;-81
2023/09/21 00:59:02;;;;;;;4.60;2.37;;;15.00;99.50;;;;;;2072739;28;20248;-81
2023/09/21 01:00:16;;;;;;;2.60;2.35;;;15.00;99.60;;;;;;2079745;28;20471;-79
2023/09/21 01:01:25;;;;;;;2.53;2.10;;;15.00;99.70;;;;;;2078555;28;20205;-80
2023/09/21 01:02:26;;;;;;;3.17;2.50;;;15.10;99.30;;;;;;2081415;28;20451;-81
2023/09/21 01:03:28;;;;;;;2.70;2.40;;;15.10;99.10;;;;;;2072660;28;20540;-80
2023/09/21 01:04:28;;;;;;;4.30;2.50;;;15.10;99.10;;;;;;2081130;28;20462;-81
2023/09/21 01:05:31;;;;;;;2.70;2.27;;;15.20;98.80;;;;;;2081558;28;20915;-81
2023/09/21 01:06:33;;;;;;;3.50;2.30;;;15.20;98.60;;;;;;2081612;28;20218;-81
2023/09/21 01:07:36;;;;;;;3.30;2.60;;;15.10;99.00;;;;;;2080977;28;20488;-81
2023/09/21 01:08:37;;;;;;;2.97;2.23;;;15.00;99.70;;;;;;2071521;28;20466;-81
2023/09/21 01:09:38;;;;;;;2.70;2.50;;;14.80;99.90;;;;;;2070936;28;21049;-81
2023/09/21 01:10:41;;;;;;;2.90;2.50;;;14.80;99.90;;;;;;2076426;28;20264;-80
2023/09/21 01:11:42;;;;;;;2.37;2.17;;;14.90;99.90;;;;;;2077620;28;20229;-82
2023/09/21 01:12:44;;;;;;;3.00;2.80;;;14.80;99.90;;;;;;2077521;28;20546;-80
2023/09/21 01:13:47;;;;;;;4.60;2.30;;;14.70;99.90;;;;;;2078878;28;20260;-80
2023/09/21 01:15:04;;;;;;;3.93;2.40;;;14.70;99.90;;;;;;2065291;28;20476;-81
2023/09/21 01:16:06;;;;;;;2.80;2.53;;;14.80;99.90;;;;;;2073370;28;20462;-81
2023/09/21 01:17:06;;;;;;;3.10;2.60;;;14.90;99.90;;;;;;2076504;28;20962;-81
2023/09/21 01:18:08;;;;;;;2.70;2.50;;;14.90;99.90;;;;;;2079335;28;20556;-81
2023/09/21 01:19:09;;;;;;;2.93;2.53;;;15.10;99.90;;;;;;2070887;28;20244;-81
2023/09/21 01:20:18;;;;;;;3.00;2.70;;;15.20;99.60;;;;;;2071342;28;20435;-81
2023/09/21 01:21:37;;;;;;;2.63;2.20;;;15.30;99.60;;;;;;2071629;28;20462;-81
2023/09/21 01:22:39;;;;;;;3.37;2.33;;;15.30;99.90;;;;;;2072292;28;21101;-81
2023/09/21 01:23:49;;;;;;;2.87;2.17;;;15.20;99.80;;;;;;2071370;28;20470;-81
2023/09/21 01:24:50;;;;;;;3.07;2.50;;;15.10;99.90;;;;;;2070400;28;20474;-81
2023/09/21 01:25:51;;;;;;;2.83;2.30;;;15.10;99.80;;;;;;2071344;28;20506;-81
2023/09/21 01:26:51;;;;;;;2.53;2.30;;;15.20;99.60;;;;;;2071785;28;20295;-81
2023/09/21 01:27:52;;;;;;;4.30;2.47;;;15.30;99.10;;;;;;2063620;28;20261;-81
2023/09/21 01:28:56;;;;;;;3.07;2.60;;;15.40;98.90;;;;;;2071845;28;20285;-81
2023/09/21 01:29:57;;;;;;;3.63;2.10;;;15.40;98.80;;;;;;2071070;28;20222;-80
2023/09/21 01:30:57;;;;;;;2.50;2.30;;;15.40;98.90;;;;;;2071170;28;20490;-81
2023/09/21 01:31:58;;;;;;;2.93;2.30;;;15.50;98.90;;;;;;2063485;28;20369;-81
2023/09/21 01:33:03;;;;;;;2.80;2.17;;;15.50;99.00;;;;;;2072253;28;20241;-81
2023/09/21 01:34:04;;;;;;;2.30;2.10;;;15.60;99.00;;;;;;2069680;28;20681;-82
2023/09/21 01:35:06;;;;;;;3.77;2.30;;;15.60;99.20;;;;;;2070573;28;20424;-80
2023/09/21 01:36:08;;;;;;;2.90;2.57;;;15.50;99.60;;;;;;2067437;28;20633;-81
2023/09/21 01:37:09;;;;;;;2.53;2.33;;;15.40;99.30;;;;;;2071706;28;20415;-81
2023/09/21 01:38:13;;;;;;;3.50;2.53;;;15.50;99.10;;;;;;2070019;28;20482;-81
2023/09/21 01:39:14;;;;;;;5.77;2.30;;;15.50;99.30;;;;;;2069409;28;20269;-81
2023/09/21 01:40:16;;;;;;;2.87;2.50;;;15.50;99.20;;;;;;2080480;28;20865;-82
2023/09/21 01:41:18;;;;;;;2.60;2.40;;;15.50;99.20;;;;;;2072701;28;20250;-81
2023/09/21 01:42:19;;;;;;;2.93;2.00;;;15.50;99.20;;;;;;2073232;28;20430;-81
2023/09/21 01:43:20;;;;;;;2.73;2.00;;;15.60;99.20;;;;;;2071390;28;20511;-80
2023/09/21 01:44:21;;;;;;;2.57;2.37;;;15.50;99.10;;;;;;2072416;28;20276;-81
2023/09/21 01:45:22;;;;;;;4.63;2.43;;;15.50;99.20;;;;;;2070333;28;21540;-81
2023/09/21 01:46:23;;;;;;;2.73;2.50;;;15.50;99.30;;;;;;2072286;28;20565;-81
2023/09/21 01:47:25;;;;;;;2.70;2.33;;;15.50;99.30;;;;;;2070279;28;20232;-81
2023/09/21 01:48:27;;;;;;;2.63;2.43;;;15.50;99.30;;;;;;2072522;28;20995;-81
2023/09/21 01:49:27;;;;;;;3.90;2.33;;;15.50;99.30;;;;;;2071717;28;20469;-81
2023/09/21 01:50:29;;;;;;;2.40;2.20;;;15.60;99.20;;;;;;2071147;28;20474;-81
2023/09/21 01:51:29;;;;;;;2.37;2.17;;;15.60;99.00;;;;;;2070784;28;20229;-81
2023/09/21 01:52:30;;;;;;;3.23;2.50;;;15.70;98.70;;;;;;2071645;28;20921;-81
2023/09/21 01:53:32;;;;;;;3.87;2.57;;;15.80;98.50;;;;;;2072633;28;20294;-81
2023/09/21 01:54:32;;;;;;;2.40;2.20;;;15.70;98.50;;;;;;2069886;28;20272;-81
2023/09/21 01:55:33;;;;;;;3.77;2.23;;;15.80;98.50;;;;;;2071697;28;20502;-80
2023/09/21 01:56:34;;;;;;;3.20;2.10;;;15.70;98.50;;;;;;2071563;28;20236;-81
2023/09/21 01:57:35;;;;;;;3.20;2.20;;;15.70;98.60;;;;;;2071455;28;20277;-81
2023/09/21 01:58:37;;;;;;;3.67;2.53;;;15.70;98.70;;;;;;2070675;28;20522;-81
2023/09/21 01:59:38;;;;;;;3.23;2.33;;;15.80;99.00;;;;;;2055612;28;20477;-81
2023/09/21 02:00:39;;;;;;;2.90;2.20;;;15.90;98.70;;;;;;2061839;28;21071;-81
2023/09/21 02:01:42;;;;;;;2.53;2.33;;;15.90;99.20;;;;;;2067759;28;20475;-81
2023/09/21 02:02:42;;;;;;;2.33;2.13;;;15.90;98.50;;;;;;2070934;28;20471;-81
2023/09/21 02:03:44;;;;;;;2.57;2.37;;;15.80;98.60;;;;;;2062974;28;21090;-81
2023/09/21 02:04:44;;;;;;;2.77;2.20;;;15.90;98.60;;;;;;2071400;28;20225;-81
2023/09/21 02:05:46;;;;;;;2.47;1.97;;;15.80;98.80;;;;;;2069374;28;20833;-80
2023/09/21 02:06:46;;;;;;;3.50;2.40;;;15.70;99.00;;;;;;2063992;28;20669;-81
2023/09/21 02:07:47;;;;;;;2.73;2.20;;;15.70;99.20;;;;;;2071048;28;20463;-80
2023/09/21 02:08:49;;;;;;;2.47;2.13;;;15.60;99.10;;;;;;2063192;28;20727;-81
2023/09/21 02:09:49;;;;;;;2.97;2.20;;;15.60;99.20;;;;;;2071448;28;20514;-81
2023/09/21 02:10:50;;;;;;;2.97;2.17;;;15.60;99.60;;;;;;2061561;28;20534;-81
2023/09/21 02:11:51;;;;;;;2.30;2.10;;;15.60;99.50;;;;;;2070071;28;20237;-81
2023/09/21 02:12:59;;;;;;;2.77;2.30;;;15.60;99.50;;;;;;2071319;28;20673;-81
2023/09/21 02:14:00;;;;;;;3.57;2.40;;;15.60;99.20;;;;;;2078356;28;20452;-81
2023/09/21 02:15:01;;;;;;;2.53;2.27;;;15.70;99.20;;;;;;2080390;28;20892;-81
2023/09/21 02:16:02;;;;;;;2.40;2.20;;;15.60;99.30;;;;;;2065072;28;20272;-83
2023/09/21 02:17:03;;;;;;;2.60;2.23;;;15.70;99.40;;;;;;2072657;28;20236;-81
2023/09/21 02:18:06;;;;;;;3.40;2.10;;;15.60;99.20;;;;;;2070999;28;20431;-81
2023/09/21 02:19:07;;;;;;;2.33;2.00;;;15.70;99.20;;;;;;2066375;28;20186;-81
2023/09/21 02:20:13;;;;;;;3.47;2.37;;;15.70;99.50;;;;;;2071946;28;20454;-81
2023/09/21 02:21:17;;;;;;;2.83;2.10;;;15.70;99.00;;;;;;2071528;28;20516;-81
2023/09/21 02:22:19;;;;;;;2.60;2.13;;;15.70;98.90;;;;;;2063605;28;20455;-82
2023/09/21 02:23:20;;;;;;;2.40;2.20;;;15.70;98.80;;;;;;2071624;28;20473;-80
2023/09/21 02:24:21;;;;;;;3.77;2.20;;;15.80;98.70;;;;;;2072254;28;20419;-81
2023/09/21 02:25:22;;;;;;;2.93;2.23;;;15.70;98.50;;;;;;2072862;28;20829;-81
2023/09/21 02:26:23;;;;;;;4.03;2.57;;;15.70;98.50;;;;;;2072356;28;20324;-81
2023/09/21 02:27:23;;;;;;;2.63;2.43;;;15.70;98.80;;;;;;2071275;28;20477;-81
2023/09/21 02:28:24;;;;;;;2.50;2.20;;;15.70;98.60;;;;;;2071668;28;20226;-81
2023/09/21 02:29:24;;;;;;;2.57;2.30;;;15.70;98.40;;;;;;2071104;28;20306;-81
2023/09/21 02:30:25;;;;;;;4.43;2.30;;;15.70;98.30;;;;;;2060141;28;20230;-80
2023/09/21 02:31:26;;;;;;;2.87;2.47;;;15.60;98.60;;;;;;2074467;28;20253;-80
2023/09/21 02:32:27;;;;;;;3.10;2.60;;;15.50;99.00;;;;;;2075859;28;20685;-82
2023/09/21 02:33:29;;;;;;;3.60;2.53;;;15.50;98.90;;;;;;2071784;28;20463;-81
2023/09/21 02:34:30;;;;;;;2.40;2.20;;;15.50;98.70;;;;;;2072047;28;20255;-81
2023/09/21 02:35:33;;;;;;;2.43;2.20;;;15.60;98.70;;;;;;2070556;28;20733;-81
2023/09/21 02:36:34;;;;;;;2.83;2.40;;;15.50;98.90;;;;;;2063987;28;20248;-80
2023/09/21 02:37:35;;;;;;;3.57;2.43;;;15.50;99.10;;;;;;2063111;28;20936;-80
2023/09/21 02:38:36;;;;;;;2.10;2.00;;;15.50;99.50;;;;;;2070974;28;20229;-80
2023/09/21 02:39:36;;;;;;;4.30;2.60;;;15.50;99.60;;;;;;2069692;28;20532;-80
2023/09/21 02:40:39;;;;;;;3.93;2.30;;;15.50;99.30;;;;;;2071771;28;20253;-80
2023/09/21 02:41:39;;;;;;;3.43;2.50;;;15.50;99.60;;;;;;2064930;28;20238;-80
2023/09/21 02:42:44;;;;;;;2.97;2.50;;;15.50;99.90;;;;;;2071907;28;20475;-80
2023/09/21 02:43:45;;;;;;;2.93;2.40;;;15.40;99.90;;;;;;2070482;28;20232;-80
2023/09/21 02:44:46;;;;;;;2.70;2.40;;;15.40;99.90;;;;;;2070134;28;20501;-80
2023/09/21 02:45:49;;;;;;;3.03;2.40;;;15.40;99.90;;;;;;2066395;28;20562;-79
2023/09/21 02:46:50;;;;;;;2.80;2.50;;;15.40;99.90;;;;;;2070553;28;20233;-81
2023/09/21 02:47:54;;;;;;;2.90;2.70;;;15.30;99.90;;;;;;2073664;28;20513;-81
2023/09/21 02:48:54;;;;;;;2.40;2.20;;;15.40;99.90;;;;;;2074081;28;20912;-81
2023/09/21 02:49:55;;;;;;;3.50;2.50;;;15.40;99.90;;;;;;2070779;28;20482;-81
2023/09/21 02:50:55;;;;;;;2.20;1.97;;;15.30;99.90;;;;;;2071488;28;20233;-80
2023/09/21 02:51:56;;;;;;;3.30;2.33;;;15.30;99.90;;;;;;2071326;28;20599;-80
2023/09/21 02:53:06;;;;;;;2.67;2.47;;;15.30;99.90;;;;;;2071064;28;20470;-80
2023/09/21 02:54:11;;;;;;;2.50;2.30;;;15.30;99.90;;;;;;2066725;28;20216;-80
2023/09/21 02:55:20;;;;;;;3.70;2.30;;;15.40;99.90;;;;;;2073444;28;20820;-81
2023/09/21 02:56:21;;;;;;;2.90;2.60;;;15.50;99.90;;;;;;2076652;28;20504;-80
2023/09/21 02:57:22;;;;;;;2.60;2.40;;;15.50;99.90;;;;;;2070963;28;22043;-81
2023/09/21 02:58:22;;;;;;;2.80;2.50;;;15.60;99.90;;;;;;2071189;28;20233;-80
2023/09/21 02:59:25;;;;;;;2.87;2.50;;;15.70;99.90;;;;;;2070894;28;20602;-81
2023/09/21 03:00:29;;;;;;;2.60;2.40;;;15.70;99.90;;;;;;2070603;28;20675;-81
2023/09/21 03:01:30;;;;;;;2.90;2.60;;;15.70;99.90;;;;;;2071681;28;20505;-81
2023/09/21 03:02:31;;;;;;;2.80;2.60;;;15.70;99.90;;;;;;2070710;28;20494;-81
2023/09/21 03:03:31;;;;;;;2.80;2.50;;;15.70;99.90;;;;;;2071158;28;20837;-81
2023/09/21 03:04:32;;;;;;;2.60;2.40;;;15.70;99.90;;;;;;2070650;28;20291;-81
2023/09/21 03:05:33;;;;;;;2.97;2.40;;;15.70;99.90;;;;;;2073352;28;20226;-82
2023/09/21 03:06:35;;;;;;;2.90;2.60;;;15.70;99.90;;;;;;2070721;28;20225;-81
2023/09/21 03:07:38;;;;;;;3.30;2.50;;;15.60;99.90;;;;;;2070196;28;20473;-81
2023/09/21 03:08:39;;;;;;;2.90;2.60;;;15.60;99.90;;;;;;2069971;28;20470;-81
2023/09/21 03:09:42;;;;;;;3.33;2.40;;;15.60;99.90;;;;;;2069273;28;20467;-81
2023/09/21 03:10:48;;;;;;;2.70;2.43;;;15.70;99.90;;;;;;2071389;28;20486;-81
2023/09/21 03:11:48;;;;;;;3.40;2.43;;;15.70;99.90;;;;;;2069587;28;20253;-81
2023/09/21 03:12:51;;;;;;;2.60;2.40;;;15.60;99.90;;;;;;2054523;28;20480;-81
2023/09/21 03:13:51;;;;;;;3.20;2.30;;;15.50;99.90;;;;;;2053995;28;20684;-81
2023/09/21 03:14:52;;;;;;;3.80;2.80;;;15.30;99.90;;;;;;2061592;28;20519;-81
2023/09/21 03:15:57;;;;;;;3.93;2.73;;;15.30;99.90;;;;;;2070563;28;20697;-80
2023/09/21 03:16:58;;;;;;;2.77;2.20;;;15.30;99.90;;;;;;2067960;28;20242;-80
2023/09/21 03:17:59;;;;;;;5.13;2.77;;;15.30;99.90;;;;;;2063348;28;20571;-80
2023/09/21 03:19:00;;;;;;;2.87;2.60;;;15.30;99.90;;;;;;2062081;28;20848;-80
2023/09/21 03:20:12;;;;;;;4.17;2.80;;;15.30;99.90;;;;;;2070163;28;20233;-80
2023/09/21 03:21:15;;;;;;;3.10;2.50;;;15.30;99.90;;;;;;2065085;28;20232;-81
2023/09/21 03:22:17;;;;;;;3.07;2.87;;;15.40;99.90;;;;;;2079889;28;20449;-78
2023/09/21 03:23:18;;;;;;;2.97;2.77;;;15.50;99.90;;;;;;2080298;28;20495;-79
2023/09/21 03:24:19;;;;;;;3.30;3.00;;;15.60;99.90;;;;;;2071946;28;20466;-79
2023/09/21 03:25:25;;;;;;;5.37;3.07;;;15.60;99.90;;;;;;2070392;28;20207;-82
2023/09/21 03:26:26;;;;;;;3.17;2.87;;;15.60;99.90;;;;;;2070905;28;20240;-80
2023/09/21 03:27:26;;;;;;;3.00;2.80;;;15.50;99.90;;;;;;2070729;28;21088;-80
2023/09/21 03:28:27;;;;;;;4.43;3.07;;;15.50;99.90;;;;;;2070251;28;20253;-79
2023/09/21 03:29:29;;;;;;;4.00;3.03;;;15.50;99.90;;;;;;2061465;28;20238;-79
2023/09/21 03:30:31;;;;;;;4.10;3.03;;;15.60;99.90;;;;;;2069875;28;20510;-81
2023/09/21 03:31:32;;;;;;;3.57;2.97;;;15.60;99.90;;;;;;2065659;28;20470;-80
2023/09/21 03:32:33;;;;;;;3.20;2.90;;;15.60;99.90;;;;;;2070639;28;20474;-81
2023/09/21 03:33:34;;;;;;;3.10;2.90;;;15.70;99.90;;;;;;2068532;28;20504;-80
2023/09/21 03:34:36;;;;;;;3.00;2.80;;;15.60;99.90;;;;;;2070213;28;20991;-81
2023/09/21 03:35:37;;;;;;;2.90;2.70;;;15.60;99.90;;;;;;2070765;28;20879;-81
2023/09/21 03:36:38;;;;;;;3.20;2.90;;;15.80;99.90;;;;;;2071659;28;20539;-81
2023/09/21 03:37:41;;;;;;;4.33;3.37;;;15.60;99.90;;;;;;2071270;28;20508;-80
2023/09/21 03:38:41;;;;;;;4.37;3.23;;;15.60;99.90;;;;;;2070760;28;20248;-81
2023/09/21 03:39:42;;;;;;;4.03;2.97;;;15.60;99.90;;;;;;2069281;28;20954;-81
2023/09/21 03:40:44;;;;;;;4.30;2.80;;;15.60;99.90;;;;;;2070578;28;20292;-81
2023/09/21 03:41:46;;;;;;;3.87;2.70;;;15.50;99.90;;;;;;2070425;28;20329;-81
2023/09/21 03:42:46;;;;;;;3.53;3.00;;;15.50;99.90;;;;;;2070991;28;20478;-81
2023/09/21 03:43:47;;;;;;;4.73;3.23;;;15.50;99.90;;;;;;2070083;28;20833;-80
2023/09/21 03:44:47;;;;;;;3.40;3.10;;;15.50;99.90;;;;;;2070338;28;20313;-80
2023/09/21 03:45:48;;;;;;;4.27;2.80;;;15.60;99.90;;;;;;2070384;28;20225;-81
2023/09/21 03:46:48;;;;;;;4.03;2.87;;;15.60;99.90;;;;;;2070318;28;20324;-81
2023/09/21 03:47:52;;;;;;;3.20;2.90;;;15.60;99.90;;;;;;2070943;28;20271;-80
2023/09/21 03:48:53;;;;;;;4.10;3.50;;;15.60;99.90;;;;;;2069615;28;20229;-81
2023/09/21 03:49:53;;;;;;;3.17;2.87;;;15.60;99.90;;;;;;2070370;28;20539;-80
2023/09/21 03:50:55;;;;;;;3.83;3.23;;;15.60;99.90;;;;;;2061487;28;20326;-80
2023/09/21 03:51:56;;;;;;;3.30;3.00;;;15.50;99.90;;;;;;2061105;28;20233;-81
2023/09/21 03:52:57;;;;;;;3.50;3.20;;;15.50;99.90;;;;;;2060308;28;20852;-81
2023/09/21 03:53:57;;;;;;;3.73;3.43;;;15.50;99.90;;;;;;2056821;28;20235;-81
2023/09/21 03:55:02;;;;;;;3.70;3.30;;;15.60;99.90;;;;;;2061698;28;20708;-81
2023/09/21 03:56:03;;;;;;;3.20;2.90;;;15.60;99.90;;;;;;2069608;28;20678;-80
2023/09/21 03:57:04;;;;;;;3.40;3.10;;;15.60;99.90;;;;;;2070771;28;20431;-81
2023/09/21 03:58:05;;;;;;;4.07;3.00;;;15.70;99.90;;;;;;2071227;28;20198;-81
2023/09/21 03:59:06;;;;;;;3.20;2.90;;;15.50;99.90;;;;;;2070091;28;20517;-80
2023/09/21 04:00:19;;;;;;;3.30;3.00;;;15.50;99.90;;;;;;2070554;28;20512;-80
2023/09/21 04:01:21;;;;;;;3.07;2.83;;;15.50;99.90;;;;;;2071526;28;20462;-81
2023/09/21 04:02:22;;;;;;;4.70;2.90;;;15.40;99.90;;;;;;2072072;28;20782;-81
2023/09/21 04:03:24;;;;;;;3.77;3.47;;;15.40;99.90;;;;;;2070835;28;20475;-81
2023/09/21 04:04:25;;;;;;;3.47;3.17;;;15.40;99.90;;;;;;2068231;28;20471;-81
2023/09/21 04:05:31;;;;;;;4.43;3.00;;;15.40;99.90;;;;;;2070307;28;20470;-81
2023/09/21 04:06:32;;;;;;;3.30;3.00;;;15.40;99.90;;;;;;2070607;28;20244;-81
2023/09/21 04:07:32;;;;;;;3.80;3.30;;;15.40;99.90;;;;;;2062901;28;20502;-81
2023/09/21 04:08:33;;;;;;;3.83;2.90;;;15.40;99.90;;;;;;2062632;28;20229;-81
2023/09/21 04:09:34;;;;;;;4.40;3.10;;;15.30;99.90;;;;;;2070276;28;20331;-81
2023/09/21 04:10:39;;;;;;;4.13;3.10;;;15.30;99.90;;;;;;2068341;28;20229;-81
2023/09/21 04:11:39;;;;;;;4.67;3.37;;;15.50;99.90;;;;;;2062471;28;20660;-81
2023/09/21 04:12:41;;;;;;;3.80;3.50;;;15.40;99.90;;;;;;2070749;28;20509;-81
2023/09/21 04:13:41;;;;;;;3.43;3.13;;;15.50;99.90;;;;;;2071115;28;20240;-81
2023/09/21 04:14:45;;;;;;;3.63;3.33;;;15.50;99.90;;;;;;2071062;28;20970;-81
2023/09/21 04:15:46;;;;;;;3.77;3.13;;;15.50;99.90;;;;;;2069109;28;20229;-81
2023/09/21 04:16:47;;;;;;;4.63;3.30;;;15.50;99.90;;;;;;2065126;28;20468;-81
2023/09/21 04:17:48;;;;;;;3.67;3.37;;;15.50;99.90;;;;;;2070366;28;20462;-80
2023/09/21 04:18:49;;;;;;;3.63;3.33;;;15.50;99.90;;;;;;2069874;28;20225;-81
2023/09/21 04:19:52;;;;;;;3.57;3.27;;;15.50;99.90;;;;;;2070962;28;20259;-81
2023/09/21 04:20:53;;;;;;;3.80;3.40;;;15.50;99.90;;;;;;2076669;28;20262;-80
2023/09/21 04:21:54;;;;;;;5.60;3.57;;;15.60;99.90;;;;;;2077013;28;20471;-81
2023/09/21 04:22:55;;;;;;;3.70;3.40;;;15.50;99.90;;;;;;2077042;28;20668;-80
2023/09/21 04:23:55;;;;;;;3.70;3.40;;;15.50;99.90;;;;;;2067681;28;20677;-81
2023/09/21 04:24:57;;;;;;;3.37;3.07;;;15.50;99.90;;;;;;2071031;28;20236;-81
2023/09/21 04:25:58;;;;;;;4.03;3.17;;;15.50;99.90;;;;;;2070354;28;20613;-81
2023/09/21 04:26:58;;;;;;;4.23;3.37;;;15.50;99.90;;;;;;2072098;28;20485;-81
2023/09/21 04:27:59;;;;;;;3.70;3.40;;;15.50;99.90;;;;;;2074717;28;20318;-80
2023/09/21 04:28:59;;;;;;;3.50;3.20;;;15.50;99.90;;;;;;2074983;28;20240;-80
2023/09/21 04:30:03;;;;;;;3.80;3.40;;;15.40;99.90;;;;;;2072998;28;20744;-81
2023/09/21 04:31:04;;;;;;;3.93;3.50;;;15.40;99.90;;;;;;2064835;28;20237;-81
2023/09/21 04:32:04;;;;;;;4.60;3.90;;;15.50;99.90;;;;;;2059552;28;20436;-81
2023/09/21 04:33:05;;;;;;;4.23;3.80;;;15.50;99.90;;;;;;2069613;28;20259;-82
2023/09/21 04:34:06;;;;;;;4.20;3.73;;;15.50;99.90;;;;;;2071801;28;20249;-81
2023/09/21 04:35:07;;;;;;;3.97;3.60;;;15.50;99.90;;;;;;2071474;28;20595;-81
2023/09/21 04:36:07;;;;;;;3.63;3.33;;;15.50;99.90;;;;;;2070734;28;20181;-81
2023/09/21 04:37:09;;;;;;;3.23;3.00;;;15.50;99.90;;;;;;2065048;28;20556;-80
2023/09/21 04:38:09;;;;;;;4.83;3.70;;;15.50;99.90;;;;;;2064260;28;20219;-83
2023/09/21 04:39:14;;;;;;;3.70;3.40;;;15.50;99.90;;;;;;2063628;28;20439;-81
2023/09/21 04:40:15;;;;;;;3.80;3.50;;;15.50;99.90;;;;;;2071638;28;20657;-81
2023/09/21 04:41:16;;;;;;;3.57;3.27;;;15.50;99.90;;;;;;2072713;28;20474;-81
2023/09/21 04:42:18;;;;;;;4.13;3.73;;;15.40;99.90;;;;;;2080477;28;20504;-81
2023/09/21 04:43:18;;;;;;;4.00;3.70;;;15.50;99.90;;;;;;2071806;28;20461;-81
2023/09/21 04:44:19;;;;;;;4.87;3.60;;;15.50;99.90;;;;;;2071626;28;20431;-82
2023/09/21 04:45:19;;;;;;;3.90;3.10;;;15.60;99.90;;;;;;2074189;28;20189;-81
2023/09/21 04:46:20;;;;;;;3.90;3.50;;;15.50;99.90;;;;;;2071694;28;20664;-81
2023/09/21 04:47:23;;;;;;;4.20;3.67;;;15.50;99.90;;;;;;2072709;28;20186;-81
2023/09/21 04:48:24;;;;;;;4.03;3.73;;;15.50;99.90;;;;;;2071520;28;20229;-79
2023/09/21 04:49:24;;;;;;;3.77;3.47;;;15.40;99.90;;;;;;2070898;28;20526;-81
2023/09/21 04:50:25;;;;;;;4.37;3.30;;;15.40;99.90;;;;;;2071864;28;20233;-81
2023/09/21 04:51:26;;;;;;;4.43;4.03;;;15.30;99.90;;;;;;2072045;28;20255;-80
2023/09/21 04:52:26;;;;;;;3.90;3.60;;;15.30;99.90;;;;;;2064013;28;20308;-81
2023/09/21 04:53:27;;;;;;;4.50;3.97;;;15.30;99.90;;;;;;2071603;28;20241;-81
2023/09/21 04:54:28;;;;;;;4.37;3.67;;;15.30;99.90;;;;;;2072455;28;20973;-81
2023/09/21 04:55:28;;;;;;;3.90;3.50;;;15.40;99.90;;;;;;2071900;28;20717;-80
2023/09/21 04:56:29;;;;;;;4.07;3.77;;;15.40;99.90;;;;;;2071867;28;20221;-81
2023/09/21 04:57:30;;;;;;;4.03;3.20;;;15.50;99.90;;;;;;2071616;28;20785;-81
2023/09/21 04:58:31;;;;;;;3.80;3.50;;;15.40;99.90;;;;;;2071592;28;20222;-81
2023/09/21 04:59:32;;;;;;;3.80;3.50;;;15.50;99.90;;;;;;2071018;28;20553;-81
2023/09/21 05:00:33;;;;;;;4.03;3.57;;;15.50;99.90;;;;;;2072751;28;20233;-81
2023/09/21 05:01:33;;;;;;;3.77;3.37;;;15.50;99.90;;;;;;2077555;28;20233;-81
2023/09/21 05:02:34;;;;;;;4.53;3.70;;;15.40;99.90;;;;;;2078722;28;20224;-81
2023/09/21 05:03:36;;;;;;;4.73;3.50;;;15.50;99.90;;;;;;2079788;28;20355;-81
2023/09/21 05:04:37;;;;;;;3.77;3.40;;;15.50;99.90;;;;;;2071250;28;21084;-81
2023/09/21 05:05:37;;;;;;;3.83;3.40;;;15.70;99.90;;;;;;2070798;28;20459;-81
2023/09/21 05:06:38;;;;;;;4.03;3.73;;;15.60;99.90;;;;;;2079078;28;20643;-80
2023/09/21 05:07:39;;;;;;;4.70;3.87;;;15.60;99.90;;;;;;2072410;28;20229;-81
2023/09/21 05:08:39;;;;;;;4.13;3.80;;;15.60;99.90;;;;;;2071493;28;20312;-81
2023/09/21 05:09:40;;;;;;;3.70;3.40;;;15.50;99.90;;;;;;2071457;28;20702;-82
2023/09/21 05:10:41;;;;;;;4.23;3.83;;;15.50;99.90;;;;;;2072897;28;20606;-81
2023/09/21 05:11:42;;;;;;;3.97;3.57;;;15.60;99.90;;;;;;2071835;28;20463;-81
2023/09/21 05:12:42;;;;;;;4.20;3.90;;;15.60;99.90;;;;;;2072203;28;20270;-81
2023/09/21 05:13:43;;;;;;;4.07;3.40;;;15.60;99.90;;;;;;2072332;28;20632;-81
2023/09/21 05:14:47;;;;;;;4.17;3.77;;;15.60;99.90;;;;;;2071583;28;20229;-82
2023/09/21 05:15:48;;;;;;;4.33;3.93;;;15.70;99.90;;;;;;2070772;28;20233;-81
2023/09/21 05:16:49;;;;;;;4.33;3.77;;;15.60;99.90;;;;;;2063219;28;20479;-80
2023/09/21 05:17:49;;;;;;;3.50;3.20;;;15.60;99.90;;;;;;2071746;28;20281;-81
2023/09/21 05:18:50;;;;;;;4.37;3.50;;;15.60;99.90;;;;;;2071661;28;20245;-81
2023/09/21 05:19:51;;;;;;;3.90;3.60;;;15.60;99.90;;;;;;2070974;28;20689;-80
2023/09/21 05:20:51;;;;;;;3.97;3.57;;;15.60;99.90;;;;;;2072945;28;20269;-81
2023/09/21 05:21:56;;;;;;;3.70;3.40;;;15.70;99.90;;;;;;2072449;28;20733;-80